sensor_id;sensor_type;location;lat;lon;timestamp;temperature;humidity
38550;DHT22;24322;52.004;5.948;2022-07-04T00:01:21;14.20;99.90
38550;DHT22;24322;52.004;5.948;2022-07-04T00:03:47;14.10;99.90
38550;DHT22;24322;52.004;5.948;2022-07-04T00:06:13;14.10;99.90
38550;DHT22;24322;52.004;5.948;2022-07-04T00:08:38;14.00;99.90
38550;DHT22;24322;52.004;5.948;2022-07-04T00:11:04;14.00;99.90
38550;DHT22;24322;52.004;5.948;2022-07-04T00:13:30;13.90;99.90
38550;DHT22;24322;52.004;5.948;2022-07-04T00:15:55;13.90;99.90
38550;DHT22;24322;52.004;5.948;2022-07-04T00:18:21;13.80;99.90
38550;DHT22;24322;52.004;5.948;2022-07-04T00:20:47;13.70;99.90
38550;DHT22;24322;52.004;5.948;2022-07-04T00:23:12;13.70;99.90
38550;DHT22;24322;52.004;5.948;2022-07-04T00:25:38;13.70;99.90
38550;DHT22;24322;52.004;5.948;2022-07-04T00:28:04;13.60;99.90
38550;DHT22;24322;52.004;5.948;2022-07-04T00:30:29;13.60;99.90
38550;DHT22;24322;52.004;5.948;2022-07-04T00:32:55;13.50;99.90
38550;DHT22;24322;52.004;5.948;2022-07-04T00:35:20;13.50;99.90
38550;DHT22;24322;52.004;5.948;2022-07-04T00:37:46;13.40;99.90
38550;DHT22;24322;52.004;5.948;2022-07-04T00:40:12;13.40;99.90
38550;DHT22;24322;52.004;5.948;2022-07-04T00:42:37;13.30;99.90
38550;DHT22;24322;52.004;5.948;2022-07-04T00:45:03;13.30;99.90
38550;DHT22;24322;52.004;5.948;2022-07-04T00:47:29;13.20;99.90
38550;DHT22;24322;52.004;5.948;2022-07-04T00:49:55;13.20;99.90
38550;DHT22;24322;52.004;5.948;2022-07-04T00:52:21;13.20;99.90
38550;DHT22;24322;52.004;5.948;2022-07-04T00:54:47;13.10;99.90
38550;DHT22;24322;52.004;5.948;2022-07-04T00:57:12;13.10;99.90
38550;DHT22;24322;52.004;5.948;2022-07-04T00:59:38;13.00;99.90
38550;DHT22;24322;52.004;5.948;2022-07-04T01:02:04;13.00;99.90
38550;DHT22;24322;52.004;5.948;2022-07-04T01:04:30;12.90;99.90
38550;DHT22;24322;52.004;5.948;2022-07-04T01:06:55;12.90;99.90
38550;DHT22;24322;52.004;5.948;2022-07-04T01:09:21;12.80;99.90
38550;DHT22;24322;52.004;5.948;2022-07-04T01:11:50;12.80;99.90
38550;DHT22;24322;52.004;5.948;2022-07-04T01:14:16;12.80;99.90
38550;DHT22;24322;52.004;5.948;2022-07-04T01:16:41;12.70;99.90
38550;DHT22;24322;52.004;5.948;2022-07-04T01:19:07;12.70;99.90
38550;DHT22;24322;52.004;5.948;2022-07-04T01:21:32;12.60;99.90
38550;DHT22;24322;52.004;5.948;2022-07-04T01:23:58;12.50;99.90
38550;DHT22;24322;52.004;5.948;2022-07-04T01:26:24;12.50;99.90
38550;DHT22;24322;52.004;5.948;2022-07-04T01:28:50;12.50;99.90
38550;DHT22;24322;52.004;5.948;2022-07-04T01:31:16;12.50;99.90
38550;DHT22;24322;52.004;5.948;2022-07-04T01:33:41;12.50;99.90
38550;DHT22;24322;52.004;5.948;2022-07-04T01:36:07;12.50;99.90
38550;DHT22;24322;52.004;5.948;2022-07-04T01:38:33;12.40;99.90
38550;DHT22;24322;52.004;5.948;2022-07-04T01:40:58;12.40;99.90
38550;DHT22;24322;52.004;5.948;2022-07-04T01:43:24;12.40;99.90
38550;DHT22;24322;52.004;5.948;2022-07-04T01:45:49;12.30;99.90
38550;DHT22;24322;52.004;5.948;2022-07-04T01:48:15;12.30;99.90
38550;DHT22;24322;52.004;5.948;2022-07-04T01:50:41;12.20;99.90
38550;DHT22;24322;52.004;5.948;2022-07-04T01:53:07;12.20;99.90
38550;DHT22;24322;52.004;5.948;2022-07-04T01:55:33;12.20;99.90
38550;DHT22;24322;52.004;5.948;2022-07-04T01:57:59;12.10;99.90
38550;DHT22;24322;52.004;5.948;2022-07-04T02:00:25;12.10;99.90
38550;DHT22;24322;52.004;5.948;2022-07-04T02:03:10;12.10;99.90
38550;DHT22;24322;52.004;5.948;2022-07-04T02:05:36;12.00;99.90
38550;DHT22;24322;52.004;5.948;2022-07-04T02:08:03;11.90;99.90
38550;DHT22;24322;52.004;5.948;2022-07-04T02:10:29;11.90;99.90
38550;DHT22;24322;52.004;5.948;2022-07-04T02:12:55;11.90;99.90
38550;DHT22;24322;52.004;5.948;2022-07-04T02:15:30;11.90;99.90
38550;DHT22;24322;52.004;5.948;2022-07-04T02:17:57;11.90;99.90
38550;DHT22;24322;52.004;5.948;2022-07-04T02:20:23;11.80;99.90
38550;DHT22;24322;52.004;5.948;2022-07-04T02:22:49;11.80;99.90
38550;DHT22;24322;52.004;5.948;2022-07-04T02:25:14;11.80;99.90
38550;DHT22;24322;52.004;5.948;2022-07-04T02:27:40;11.80;99.90
38550;DHT22;24322;52.004;5.948;2022-07-04T02:30:06;11.70;99.90
38550;DHT22;24322;52.004;5.948;2022-07-04T02:32:32;11.70;99.90
38550;DHT22;24322;52.004;5.948;2022-07-04T02:34:58;11.70;99.90
38550;DHT22;24322;52.004;5.948;2022-07-04T02:37:23;11.60;99.90
38550;DHT22;24322;52.004;5.948;2022-07-04T02:39:49;11.60;99.90
38550;DHT22;24322;52.004;5.948;2022-07-04T02:42:15;11.50;99.90
38550;DHT22;24322;52.004;5.948;2022-07-04T02:44:40;11.50;99.90
38550;DHT22;24322;52.004;5.948;2022-07-04T02:47:07;11.50;99.90
38550;DHT22;24322;52.004;5.948;2022-07-04T02:49:32;11.40;99.90
38550;DHT22;24322;52.004;5.948;2022-07-04T02:51:58;11.40;99.90
38550;DHT22;24322;52.004;5.948;2022-07-04T02:54:24;11.40;99.90
38550;DHT22;24322;52.004;5.948;2022-07-04T02:56:49;11.40;99.90
38550;DHT22;24322;52.004;5.948;2022-07-04T02:59:15;11.40;99.90
38550;DHT22;24322;52.004;5.948;2022-07-04T03:01:40;11.40;99.90
38550;DHT22;24322;52.004;5.948;2022-07-04T03:04:06;11.40;99.90
38550;DHT22;24322;52.004;5.948;2022-07-04T03:06:31;11.40;99.90
38550;DHT22;24322;52.004;5.948;2022-07-04T03:08:57;11.40;99.90
38550;DHT22;24322;52.004;5.948;2022-07-04T03:11:23;11.50;99.90
38550;DHT22;24322;52.004;5.948;2022-07-04T03:13:48;11.40;99.90
38550;DHT22;24322;52.004;5.948;2022-07-04T03:16:14;11.40;99.90
38550;DHT22;24322;52.004;5.948;2022-07-04T03:18:40;11.40;99.90
38550;DHT22;24322;52.004;5.948;2022-07-04T03:21:06;11.40;99.90
38550;DHT22;24322;52.004;5.948;2022-07-04T03:23:32;11.40;99.90
38550;DHT22;24322;52.004;5.948;2022-07-04T03:25:59;11.40;99.90
38550;DHT22;24322;52.004;5.948;2022-07-04T03:28:25;11.40;99.90
38550;DHT22;24322;52.004;5.948;2022-07-04T03:30:51;11.40;99.90
38550;DHT22;24322;52.004;5.948;2022-07-04T03:33:17;11.40;99.90
38550;DHT22;24322;52.004;5.948;2022-07-04T03:35:43;11.30;99.90
38550;DHT22;24322;52.004;5.948;2022-07-04T03:38:08;11.30;99.90
38550;DHT22;24322;52.004;5.948;2022-07-04T03:40:34;11.30;99.90
38550;DHT22;24322;52.004;5.948;2022-07-04T03:43:02;11.30;99.90
38550;DHT22;24322;52.004;5.948;2022-07-04T03:45:27;11.30;99.90
38550;DHT22;24322;52.004;5.948;2022-07-04T03:47:53;11.30;99.90
38550;DHT22;24322;52.004;5.948;2022-07-04T03:50:19;11.30;99.90
38550;DHT22;24322;52.004;5.948;2022-07-04T03:52:44;11.30;99.90
38550;DHT22;24322;52.004;5.948;2022-07-04T03:55:10;11.30;99.90
38550;DHT22;24322;52.004;5.948;2022-07-04T03:57:36;11.30;99.90
38550;DHT22;24322;52.004;5.948;2022-07-04T04:00:03;11.20;99.90
38550;DHT22;24322;52.004;5.948;2022-07-04T04:02:29;11.30;99.90
38550;DHT22;24322;52.004;5.948;2022-07-04T04:04:54;11.30;99.90
38550;DHT22;24322;52.004;5.948;2022-07-04T04:07:39;11.30;99.90
38550;DHT22;24322;52.004;5.948;2022-07-04T04:10:05;11.30;99.90
38550;DHT22;24322;52.004;5.948;2022-07-04T04:12:31;11.30;99.90
38550;DHT22;24322;52.004;5.948;2022-07-04T04:14:56;11.30;99.90
38550;DHT22;24322;52.004;5.948;2022-07-04T04:17:22;11.40;99.90
38550;DHT22;24322;52.004;5.948;2022-07-04T04:19:48;11.40;99.90
38550;DHT22;24322;52.004;5.948;2022-07-04T04:22:13;11.40;99.90
38550;DHT22;24322;52.004;5.948;2022-07-04T04:24:39;11.40;99.90
38550;DHT22;24322;52.004;5.948;2022-07-04T04:27:05;11.50;99.90
38550;DHT22;24322;52.004;5.948;2022-07-04T04:29:30;11.60;99.90
38550;DHT22;24322;52.004;5.948;2022-07-04T04:31:56;11.60;99.90
38550;DHT22;24322;52.004;5.948;2022-07-04T04:34:21;11.70;99.90
38550;DHT22;24322;52.004;5.948;2022-07-04T04:36:47;11.70;99.90
38550;DHT22;24322;52.004;5.948;2022-07-04T04:39:13;11.80;99.90
38550;DHT22;24322;52.004;5.948;2022-07-04T04:41:39;11.90;99.90
38550;DHT22;24322;52.004;5.948;2022-07-04T04:44:05;12.00;99.90
38550;DHT22;24322;52.004;5.948;2022-07-04T04:46:31;12.00;99.90
38550;DHT22;24322;52.004;5.948;2022-07-04T04:48:56;12.10;99.90
38550;DHT22;24322;52.004;5.948;2022-07-04T04:51:22;12.10;99.90
38550;DHT22;24322;52.004;5.948;2022-07-04T04:53:48;12.20;99.90
38550;DHT22;24322;52.004;5.948;2022-07-04T04:56:13;12.30;99.90
38550;DHT22;24322;52.004;5.948;2022-07-04T04:58:39;12.40;99.90
38550;DHT22;24322;52.004;5.948;2022-07-04T05:01:05;12.50;99.90
38550;DHT22;24322;52.004;5.948;2022-07-04T05:03:31;12.60;99.90
38550;DHT22;24322;52.004;5.948;2022-07-04T05:05:56;12.70;99.90
38550;DHT22;24322;52.004;5.948;2022-07-04T05:08:22;12.70;99.90
38550;DHT22;24322;52.004;5.948;2022-07-04T05:10:50;12.80;99.90
38550;DHT22;24322;52.004;5.948;2022-07-04T05:13:16;12.90;99.90
38550;DHT22;24322;52.004;5.948;2022-07-04T05:15:41;12.90;99.90
38550;DHT22;24322;52.004;5.948;2022-07-04T05:18:07;13.00;99.90
38550;DHT22;24322;52.004;5.948;2022-07-04T05:20:32;13.10;99.90
38550;DHT22;24322;52.004;5.948;2022-07-04T05:22:59;13.10;99.90
38550;DHT22;24322;52.004;5.948;2022-07-04T05:25:24;13.20;99.90
38550;DHT22;24322;52.004;5.948;2022-07-04T05:27:51;13.30;99.90
38550;DHT22;24322;52.004;5.948;2022-07-04T05:30:16;13.40;99.90
38550;DHT22;24322;52.004;5.948;2022-07-04T05:32:42;13.50;99.90
38550;DHT22;24322;52.004;5.948;2022-07-04T05:35:08;13.60;99.90
38550;DHT22;24322;52.004;5.948;2022-07-04T05:37:34;13.70;99.90
38550;DHT22;24322;52.004;5.948;2022-07-04T05:40:01;13.80;99.90
38550;DHT22;24322;52.004;5.948;2022-07-04T05:42:26;14.10;99.90
38550;DHT22;24322;52.004;5.948;2022-07-04T05:44:53;14.30;99.90
38550;DHT22;24322;52.004;5.948;2022-07-04T05:47:19;14.50;99.90
38550;DHT22;24322;52.004;5.948;2022-07-04T05:49:49;14.70;99.90
38550;DHT22;24322;52.004;5.948;2022-07-04T05:52:15;14.90;99.90
38550;DHT22;24322;52.004;5.948;2022-07-04T05:54:41;15.00;99.90
38550;DHT22;24322;52.004;5.948;2022-07-04T05:57:06;15.10;99.90
38550;DHT22;24322;52.004;5.948;2022-07-04T05:59:32;15.30;99.90
38550;DHT22;24322;52.004;5.948;2022-07-04T06:01:58;15.50;99.90
38550;DHT22;24322;52.004;5.948;2022-07-04T06:04:23;15.60;99.90
38550;DHT22;24322;52.004;5.948;2022-07-04T06:06:49;15.80;99.90
38550;DHT22;24322;52.004;5.948;2022-07-04T06:09:15;15.90;99.90
38550;DHT22;24322;52.004;5.948;2022-07-04T06:11:40;16.10;99.90
38550;DHT22;24322;52.004;5.948;2022-07-04T06:14:06;16.40;99.90
38550;DHT22;24322;52.004;5.948;2022-07-04T06:16:31;16.70;99.90
38550;DHT22;24322;52.004;5.948;2022-07-04T06:18:57;16.90;99.90
38550;DHT22;24322;52.004;5.948;2022-07-04T06:21:22;17.20;99.90
38550;DHT22;24322;52.004;5.948;2022-07-04T06:23:48;17.30;99.90
38550;DHT22;24322;52.004;5.948;2022-07-04T06:26:14;17.50;99.90
38550;DHT22;24322;52.004;5.948;2022-07-04T06:28:39;17.60;99.90
38550;DHT22;24322;52.004;5.948;2022-07-04T06:31:05;17.70;99.90
38550;DHT22;24322;52.004;5.948;2022-07-04T06:33:30;17.80;99.90
38550;DHT22;24322;52.004;5.948;2022-07-04T06:35:56;17.80;99.90
38550;DHT22;24322;52.004;5.948;2022-07-04T06:38:28;17.90;99.90
38550;DHT22;24322;52.004;5.948;2022-07-04T06:40:57;17.90;99.90
38550;DHT22;24322;52.004;5.948;2022-07-04T06:43:23;18.00;99.90
38550;DHT22;24322;52.004;5.948;2022-07-04T06:45:50;18.20;99.90
38550;DHT22;24322;52.004;5.948;2022-07-04T06:48:16;18.30;99.90
38550;DHT22;24322;52.004;5.948;2022-07-04T06:50:41;18.30;99.90
38550;DHT22;24322;52.004;5.948;2022-07-04T06:53:08;18.30;99.90
38550;DHT22;24322;52.004;5.948;2022-07-04T06:55:35;18.30;99.90
38550;DHT22;24322;52.004;5.948;2022-07-04T06:58:02;18.40;99.80
38550;DHT22;24322;52.004;5.948;2022-07-04T07:00:28;18.50;99.60
38550;DHT22;24322;52.004;5.948;2022-07-04T07:02:59;18.50;99.30
38550;DHT22;24322;52.004;5.948;2022-07-04T07:05:26;18.50;99.30
38550;DHT22;24322;52.004;5.948;2022-07-04T07:07:53;18.60;99.50
38550;DHT22;24322;52.004;5.948;2022-07-04T07:10:19;18.60;99.40
38550;DHT22;24322;52.004;5.948;2022-07-04T07:12:45;18.70;98.90
38550;DHT22;24322;52.004;5.948;2022-07-04T07:15:11;18.80;98.80
38550;DHT22;24322;52.004;5.948;2022-07-04T07:17:36;19.00;98.60
38550;DHT22;24322;52.004;5.948;2022-07-04T07:20:03;19.10;98.40
38550;DHT22;24322;52.004;5.948;2022-07-04T07:22:29;19.20;98.50
38550;DHT22;24322;52.004;5.948;2022-07-04T07:24:54;19.20;98.60
38550;DHT22;24322;52.004;5.948;2022-07-04T07:27:21;19.40;98.20
38550;DHT22;24322;52.004;5.948;2022-07-04T07:29:46;19.50;97.90
38550;DHT22;24322;52.004;5.948;2022-07-04T07:32:12;19.40;98.20
38550;DHT22;24322;52.004;5.948;2022-07-04T07:34:38;19.40;98.30
38550;DHT22;24322;52.004;5.948;2022-07-04T07:37:03;19.50;98.30
38550;DHT22;24322;52.004;5.948;2022-07-04T07:39:29;19.60;98.10
38550;DHT22;24322;52.004;5.948;2022-07-04T07:41:55;19.70;98.10
38550;DHT22;24322;52.004;5.948;2022-07-04T07:44:21;19.70;98.00
38550;DHT22;24322;52.004;5.948;2022-07-04T07:46:46;19.80;97.70
38550;DHT22;24322;52.004;5.948;2022-07-04T07:49:12;19.80;97.60
38550;DHT22;24322;52.004;5.948;2022-07-04T07:51:38;20.00;97.50
38550;DHT22;24322;52.004;5.948;2022-07-04T07:54:03;20.20;97.20
38550;DHT22;24322;52.004;5.948;2022-07-04T07:56:29;20.30;97.30
38550;DHT22;24322;52.004;5.948;2022-07-04T07:58:55;20.40;97.20
38550;DHT22;24322;52.004;5.948;2022-07-04T08:01:21;20.90;97.00
38550;DHT22;24322;52.004;5.948;2022-07-04T08:03:47;21.50;95.40
38550;DHT22;24322;52.004;5.948;2022-07-04T08:06:32;21.90;93.90
38550;DHT22;24322;52.004;5.948;2022-07-04T08:08:58;22.20;93.90
38550;DHT22;24322;52.004;5.948;2022-07-04T08:11:24;22.70;93.60
38550;DHT22;24322;52.004;5.948;2022-07-04T08:13:49;23.20;92.80
38550;DHT22;24322;52.004;5.948;2022-07-04T08:16:16;24.00;91.20
38550;DHT22;24322;52.004;5.948;2022-07-04T08:18:41;24.60;90.70
38550;DHT22;24322;52.004;5.948;2022-07-04T08:21:07;25.10;87.60
38550;DHT22;24322;52.004;5.948;2022-07-04T08:23:33;25.10;83.80
38550;DHT22;24322;52.004;5.948;2022-07-04T08:25:59;25.00;84.00
38550;DHT22;24322;52.004;5.948;2022-07-04T08:28:26;24.70;85.00
38550;DHT22;24322;52.004;5.948;2022-07-04T08:30:52;24.30;84.00
38550;DHT22;24322;52.004;5.948;2022-07-04T08:33:18;23.80;85.70
38550;DHT22;24322;52.004;5.948;2022-07-04T08:35:44;23.50;86.30
38550;DHT22;24322;52.004;5.948;2022-07-04T08:38:09;23.10;88.00
38550;DHT22;24322;52.004;5.948;2022-07-04T08:40:35;22.90;88.00
38550;DHT22;24322;52.004;5.948;2022-07-04T08:43:02;22.70;89.30
38550;DHT22;24322;52.004;5.948;2022-07-04T08:45:30;22.40;90.10
38550;DHT22;24322;52.004;5.948;2022-07-04T08:48:08;22.20;90.60
38550;DHT22;24322;52.004;5.948;2022-07-04T08:50:47;22.20;91.00
38550;DHT22;24322;52.004;5.948;2022-07-04T08:53:21;22.50;91.10
38550;DHT22;24322;52.004;5.948;2022-07-04T08:55:47;22.50;90.70
38550;DHT22;24322;52.004;5.948;2022-07-04T08:58:32;22.50;90.50
38550;DHT22;24322;52.004;5.948;2022-07-04T09:01:06;22.70;90.90
38550;DHT22;24322;52.004;5.948;2022-07-04T09:03:33;23.10;89.60
38550;DHT22;24322;52.004;5.948;2022-07-04T09:06:00;23.70;89.80
38550;DHT22;24322;52.004;5.948;2022-07-04T09:08:26;24.30;87.60
38550;DHT22;24322;52.004;5.948;2022-07-04T09:10:54;25.10;84.80
38550;DHT22;24322;52.004;5.948;2022-07-04T09:13:20;25.90;82.10
38550;DHT22;24322;52.004;5.948;2022-07-04T09:15:50;26.40;79.60
38550;DHT22;24322;52.004;5.948;2022-07-04T09:21:00;25.30;79.60
38550;DHT22;24322;52.004;5.948;2022-07-04T09:23:28;25.90;79.90
38550;DHT22;24322;52.004;5.948;2022-07-04T09:28:38;27.30;73.10
38550;DHT22;24322;52.004;5.948;2022-07-04T09:31:18;26.30;72.30
38550;DHT22;24322;52.004;5.948;2022-07-04T09:33:54;25.30;74.40
38550;DHT22;24322;52.004;5.948;2022-07-04T09:36:23;24.60;76.20
38550;DHT22;24322;52.004;5.948;2022-07-04T09:39:15;23.80;78.00
38550;DHT22;24322;52.004;5.948;2022-07-04T09:42:00;23.40;80.20
38550;DHT22;24322;52.004;5.948;2022-07-04T09:46:52;22.80;83.40
38550;DHT22;24322;52.004;5.948;2022-07-04T09:49:18;22.60;84.50
38550;DHT22;24322;52.004;5.948;2022-07-04T09:51:49;22.30;85.70
38550;DHT22;24322;52.004;5.948;2022-07-04T09:54:24;22.50;86.90
38550;DHT22;24322;52.004;5.948;2022-07-04T09:56:54;23.50;86.40
38550;DHT22;24322;52.004;5.948;2022-07-04T09:59:21;24.80;83.50
38550;DHT22;24322;52.004;5.948;2022-07-04T10:01:47;25.70;79.90
38550;DHT22;24322;52.004;5.948;2022-07-04T10:04:13;26.60;76.60
38550;DHT22;24322;52.004;5.948;2022-07-04T10:06:43;27.20;73.30
38550;DHT22;24322;52.004;5.948;2022-07-04T10:11:35;27.70;68.20
38550;DHT22;24322;52.004;5.948;2022-07-04T10:14:03;27.80;67.10
38550;DHT22;24322;52.004;5.948;2022-07-04T10:16:31;27.90;66.40
38550;DHT22;24322;52.004;5.948;2022-07-04T10:18:57;28.00;65.60
38550;DHT22;24322;52.004;5.948;2022-07-04T10:21:23;28.30;64.60
38550;DHT22;24322;52.004;5.948;2022-07-04T10:23:53;28.50;63.30
38550;DHT22;24322;52.004;5.948;2022-07-04T10:26:19;28.70;61.80
38550;DHT22;24322;52.004;5.948;2022-07-04T10:28:46;28.80;60.30
38550;DHT22;24322;52.004;5.948;2022-07-04T10:31:14;28.90;59.60
38550;DHT22;24322;52.004;5.948;2022-07-04T10:33:41;28.50;58.40
38550;DHT22;24322;52.004;5.948;2022-07-04T10:36:18;28.00;58.80
38550;DHT22;24322;52.004;5.948;2022-07-04T10:38:54;27.50;59.20
38550;DHT22;24322;52.004;5.948;2022-07-04T10:41:22;27.40;60.90
38550;DHT22;24322;52.004;5.948;2022-07-04T10:51:37;25.80;60.70
38550;DHT22;24322;52.004;5.948;2022-07-04T10:56:57;24.90;64.50
38550;DHT22;24322;52.004;5.948;2022-07-04T10:59:25;24.40;64.50
38550;DHT22;24322;52.004;5.948;2022-07-04T11:04:45;24.00;67.70
38550;DHT22;24322;52.004;5.948;2022-07-04T11:07:15;23.90;68.60
38550;DHT22;24322;52.004;5.948;2022-07-04T11:09:41;23.80;68.70
38550;DHT22;24322;52.004;5.948;2022-07-04T11:12:08;23.90;70.10
38550;DHT22;24322;52.004;5.948;2022-07-04T11:17:08;24.20;69.80
38550;DHT22;24322;52.004;5.948;2022-07-04T11:19:35;24.30;67.90
38550;DHT22;24322;52.004;5.948;2022-07-04T11:22:01;24.10;66.90
38550;DHT22;24322;52.004;5.948;2022-07-04T11:24:27;24.20;67.60
38550;DHT22;24322;52.004;5.948;2022-07-04T11:26:53;24.30;67.70
38550;DHT22;24322;52.004;5.948;2022-07-04T11:29:19;24.50;67.40
38550;DHT22;24322;52.004;5.948;2022-07-04T11:31:47;24.50;66.50
38550;DHT22;24322;52.004;5.948;2022-07-04T11:34:13;24.40;65.70
38550;DHT22;24322;52.004;5.948;2022-07-04T11:36:41;24.40;66.30
38550;DHT22;24322;52.004;5.948;2022-07-04T11:39:08;24.70;67.00
38550;DHT22;24322;52.004;5.948;2022-07-04T11:41:42;24.70;66.90
38550;DHT22;24322;52.004;5.948;2022-07-04T11:44:28;24.80;65.10
38550;DHT22;24322;52.004;5.948;2022-07-04T11:47:21;24.50;65.80
38550;DHT22;24322;52.004;5.948;2022-07-04T11:50:10;24.30;65.70
38550;DHT22;24322;52.004;5.948;2022-07-04T11:52:41;24.30;67.60
38550;DHT22;24322;52.004;5.948;2022-07-04T11:55:12;24.60;68.40
38550;DHT22;24322;52.004;5.948;2022-07-04T12:00:10;25.10;66.40
38550;DHT22;24322;52.004;5.948;2022-07-04T12:02:40;25.30;65.60
38550;DHT22;24322;52.004;5.948;2022-07-04T12:05:08;25.40;63.90
38550;DHT22;24322;52.004;5.948;2022-07-04T12:07:36;25.70;66.00
38550;DHT22;24322;52.004;5.948;2022-07-04T12:10:13;25.90;63.70
38550;DHT22;24322;52.004;5.948;2022-07-04T12:12:52;25.80;62.80
38550;DHT22;24322;52.004;5.948;2022-07-04T12:15:18;25.60;63.10
38550;DHT22;24322;52.004;5.948;2022-07-04T12:17:44;25.80;63.50
38550;DHT22;24322;52.004;5.948;2022-07-04T12:20:17;26.10;62.40
38550;DHT22;24322;52.004;5.948;2022-07-04T12:22:59;26.20;61.50
38550;DHT22;24322;52.004;5.948;2022-07-04T12:25:30;26.40;61.40
38550;DHT22;24322;52.004;5.948;2022-07-04T12:28:04;26.60;60.60
38550;DHT22;24322;52.004;5.948;2022-07-04T12:30:35;26.80;60.90
38550;DHT22;24322;52.004;5.948;2022-07-04T12:33:03;27.00;60.90
38550;DHT22;24322;52.004;5.948;2022-07-04T12:35:45;27.10;59.50
38550;DHT22;24322;52.004;5.948;2022-07-04T12:38:17;26.80;58.50
38550;DHT22;24322;52.004;5.948;2022-07-04T12:43:23;26.80;58.90
38550;DHT22;24322;52.004;5.948;2022-07-04T12:45:55;26.80;59.00
38550;DHT22;24322;52.004;5.948;2022-07-04T12:48:26;26.90;58.10
38550;DHT22;24322;52.004;5.948;2022-07-04T12:50:54;26.80;57.30
38550;DHT22;24322;52.004;5.948;2022-07-04T12:53:20;27.00;58.40
38550;DHT22;24322;52.004;5.948;2022-07-04T12:55:47;26.80;55.50
38550;DHT22;24322;52.004;5.948;2022-07-04T12:58:14;26.60;56.00
38550;DHT22;24322;52.004;5.948;2022-07-04T13:00:40;26.40;55.90
38550;DHT22;24322;52.004;5.948;2022-07-04T13:03:07;26.30;56.60
38550;DHT22;24322;52.004;5.948;2022-07-04T13:05:37;26.40;56.20
38550;DHT22;24322;52.004;5.948;2022-07-04T13:08:03;26.10;54.00
38550;DHT22;24322;52.004;5.948;2022-07-04T13:10:29;26.00;56.00
38550;DHT22;24322;52.004;5.948;2022-07-04T13:12:55;26.10;56.30
38550;DHT22;24322;52.004;5.948;2022-07-04T13:15:21;26.30;55.70
38550;DHT22;24322;52.004;5.948;2022-07-04T13:17:46;26.40;55.40
38550;DHT22;24322;52.004;5.948;2022-07-04T13:20:12;26.40;55.90
38550;DHT22;24322;52.004;5.948;2022-07-04T13:22:40;26.40;55.40
38550;DHT22;24322;52.004;5.948;2022-07-04T13:25:06;26.40;55.60
38550;DHT22;24322;52.004;5.948;2022-07-04T13:27:33;26.50;56.00
38550;DHT22;24322;52.004;5.948;2022-07-04T13:29:58;26.80;56.80
38550;DHT22;24322;52.004;5.948;2022-07-04T13:32:24;27.00;56.90
38550;DHT22;24322;52.004;5.948;2022-07-04T13:34:49;26.70;55.50
38550;DHT22;24322;52.004;5.948;2022-07-04T13:37:16;26.50;55.30
38550;DHT22;24322;52.004;5.948;2022-07-04T13:39:43;26.30;55.00
38550;DHT22;24322;52.004;5.948;2022-07-04T13:42:08;26.30;54.30
38550;DHT22;24322;52.004;5.948;2022-07-04T13:44:34;26.20;54.40
38550;DHT22;24322;52.004;5.948;2022-07-04T13:47:00;26.00;54.50
38550;DHT22;24322;52.004;5.948;2022-07-04T13:49:26;26.00;54.80
38550;DHT22;24322;52.004;5.948;2022-07-04T13:51:52;26.00;55.20
38550;DHT22;24322;52.004;5.948;2022-07-04T13:54:18;25.90;55.50
38550;DHT22;24322;52.004;5.948;2022-07-04T13:56:44;25.80;56.70
38550;DHT22;24322;52.004;5.948;2022-07-04T13:59:09;25.70;56.20
38550;DHT22;24322;52.004;5.948;2022-07-04T14:01:35;25.50;57.00
38550;DHT22;24322;52.004;5.948;2022-07-04T14:04:02;25.50;57.50
38550;DHT22;24322;52.004;5.948;2022-07-04T14:06:27;25.60;57.40
38550;DHT22;24322;52.004;5.948;2022-07-04T14:08:53;25.50;57.10
38550;DHT22;24322;52.004;5.948;2022-07-04T14:11:19;25.50;57.00
38550;DHT22;24322;52.004;5.948;2022-07-04T14:13:45;25.60;57.30
38550;DHT22;24322;52.004;5.948;2022-07-04T14:16:10;25.60;57.50
38550;DHT22;24322;52.004;5.948;2022-07-04T14:18:36;25.60;56.40
38550;DHT22;24322;52.004;5.948;2022-07-04T14:21:02;25.50;55.90
38550;DHT22;24322;52.004;5.948;2022-07-04T14:23:27;25.50;56.50
38550;DHT22;24322;52.004;5.948;2022-07-04T14:26:05;25.30;55.90
38550;DHT22;24322;52.004;5.948;2022-07-04T14:28:32;25.30;56.80
38550;DHT22;24322;52.004;5.948;2022-07-04T14:30:58;25.40;56.40
38550;DHT22;24322;52.004;5.948;2022-07-04T14:33:24;25.50;56.80
38550;DHT22;24322;52.004;5.948;2022-07-04T14:35:49;25.50;55.90
38550;DHT22;24322;52.004;5.948;2022-07-04T14:38:15;25.40;56.10
38550;DHT22;24322;52.004;5.948;2022-07-04T14:40:41;25.40;55.90
38550;DHT22;24322;52.004;5.948;2022-07-04T14:43:11;25.30;55.40
38550;DHT22;24322;52.004;5.948;2022-07-04T14:45:36;25.30;56.30
38550;DHT22;24322;52.004;5.948;2022-07-04T14:48:02;25.40;56.00
38550;DHT22;24322;52.004;5.948;2022-07-04T14:50:28;25.40;55.70
38550;DHT22;24322;52.004;5.948;2022-07-04T14:52:53;25.30;55.40
38550;DHT22;24322;52.004;5.948;2022-07-04T14:55:19;25.30;55.70
38550;DHT22;24322;52.004;5.948;2022-07-04T14:57:44;25.10;54.30
38550;DHT22;24322;52.004;5.948;2022-07-04T15:00:11;24.80;55.50
38550;DHT22;24322;52.004;5.948;2022-07-04T15:02:36;24.80;56.50
38550;DHT22;24322;52.004;5.948;2022-07-04T15:05:02;24.60;55.70
38550;DHT22;24322;52.004;5.948;2022-07-04T15:07:28;24.50;56.70
38550;DHT22;24322;52.004;5.948;2022-07-04T15:09:55;24.40;56.50
38550;DHT22;24322;52.004;5.948;2022-07-04T15:12:20;24.40;56.90
38550;DHT22;24322;52.004;5.948;2022-07-04T15:14:47;24.50;57.10
38550;DHT22;24322;52.004;5.948;2022-07-04T15:17:13;24.60;57.20
38550;DHT22;24322;52.004;5.948;2022-07-04T15:19:39;24.60;57.20
38550;DHT22;24322;52.004;5.948;2022-07-04T15:22:23;24.50;56.10
38550;DHT22;24322;52.004;5.948;2022-07-04T15:25:08;24.40;56.30
38550;DHT22;24322;52.004;5.948;2022-07-04T15:27:34;24.30;57.70
38550;DHT22;24322;52.004;5.948;2022-07-04T15:29:59;24.30;57.90
38550;DHT22;24322;52.004;5.948;2022-07-04T15:32:25;24.20;56.90
38550;DHT22;24322;52.004;5.948;2022-07-04T15:34:50;24.10;56.80
38550;DHT22;24322;52.004;5.948;2022-07-04T15:37:16;24.10;57.10
38550;DHT22;24322;52.004;5.948;2022-07-04T15:39:42;24.10;57.70
38550;DHT22;24322;52.004;5.948;2022-07-04T15:42:07;24.20;58.30
38550;DHT22;24322;52.004;5.948;2022-07-04T15:44:33;24.20;57.70
38550;DHT22;24322;52.004;5.948;2022-07-04T15:46:58;24.20;57.40
38550;DHT22;24322;52.004;5.948;2022-07-04T15:49:33;24.20;57.60
38550;DHT22;24322;52.004;5.948;2022-07-04T15:51:59;24.10;57.10
38550;DHT22;24322;52.004;5.948;2022-07-04T15:54:26;24.00;57.20
38550;DHT22;24322;52.004;5.948;2022-07-04T15:56:52;24.00;57.70
38550;DHT22;24322;52.004;5.948;2022-07-04T15:59:18;24.00;58.30
38550;DHT22;24322;52.004;5.948;2022-07-04T16:01:43;23.80;58.20